Time;durP1;ratioP1;P1;durP2;ratioP2;P2;SDS_P1;SDS_P2;PMS_P1;PMS_P2;Temp;Humidity;BMP_temperature;BMP_pressure;BME280_temperature;BME280_humidity;BME280_pressure;Samples;Min_cycle;Max_cycle;Signal;HPM_P1;HPM_P2
2023/12/16 00:02:16;;;;;;;;;;;30.80;64.80;;;;;;4972509;28;19980;-70
2023/12/16 00:04:43;;;;;;;;;;;31.00;63.50;;;;;;4974075;28;19910;-75
2023/12/16 00:07:09;;;;;;;;;;;31.20;62.90;;;;;;4974501;28;19918;-80
2023/12/16 00:09:36;;;;;;;;;;;31.30;62.50;;;;;;4974316;28;19910;-77
2023/12/16 00:12:03;;;;;;;;;;;31.60;61.60;;;;;;4974393;28;20005;-80
2023/12/16 00:14:33;;;;;;;;;;;31.80;61.50;;;;;;4974390;28;19949;-79
2023/12/16 00:17:00;;;;;;;;;;;31.80;59.70;;;;;;4972557;28;20268;-74
2023/12/16 00:19:27;;;;;;;;;;;31.70;58.80;;;;;;4974312;28;19910;-72
2023/12/16 00:21:53;;;;;;;;;;;31.70;58.70;;;;;;4974070;28;19926;-76
2023/12/16 00:24:21;;;;;;;;;;;31.70;58.50;;;;;;4974007;28;19988;-73
2023/12/16 00:26:48;;;;;;;;;;;31.60;58.60;;;;;;4973076;28;20013;-71
2023/12/16 00:29:15;;;;;;;;;;;31.70;59.10;;;;;;4973311;28;19914;-72
2023/12/16 00:31:41;;;;;;;;;;;31.80;59.20;;;;;;4973397;28;19914;-71
2023/12/16 00:34:08;;;;;;;;;;;31.80;58.60;;;;;;4973343;28;19921;-73
2023/12/16 00:36:35;;;;;;;;;;;32.00;58.90;;;;;;4973681;28;19914;-71
2023/12/16 00:39:02;;;;;;;;;;;31.90;56.60;;;;;;4973137;28;19964;-77
2023/12/16 00:41:29;;;;;;;;;;;32.00;55.30;;;;;;4961992;28;19914;-73
2023/12/16 00:43:56;;;;;;;;;;;32.10;56.50;;;;;;4954532;28;19910;-76
2023/12/16 00:46:23;;;;;;;;;;;32.30;56.40;;;;;;4966669;28;19967;-71
2023/12/16 00:48:50;;;;;;;;;;;32.40;55.20;;;;;;4959024;28;19937;-74
2023/12/16 00:51:16;;;;;;;;;;;32.40;55.50;;;;;;4954212;28;19918;-73
2023/12/16 00:53:43;;;;;;;;;;;32.50;54.30;;;;;;4961969;28;19915;-77
2023/12/16 00:56:10;;;;;;;;;;;32.60;54.20;;;;;;4961509;28;20315;-77
2023/12/16 00:58:36;;;;;;;;;;;32.60;54.00;;;;;;4953973;28;19910;-71
2023/12/16 01:01:03;;;;;;;;;;;32.60;53.30;;;;;;4953866;28;19914;-72
2023/12/16 01:03:29;;;;;;;;;;;32.70;53.50;;;;;;4953896;28;19964;-71
2023/12/16 01:05:56;;;;;;;;;;;32.70;53.20;;;;;;4973302;28;19910;-72
2023/12/16 01:08:23;;;;;;;;;;;32.90;54.10;;;;;;4959976;28;19923;-71
2023/12/16 01:10:49;;;;;;;;;;;33.00;54.20;;;;;;4973057;28;20374;-76
2023/12/16 01:13:17;;;;;;;;;;;33.10;53.30;;;;;;4973084;28;19910;-75
2023/12/16 01:15:43;;;;;;;;;;;33.10;52.70;;;;;;4973315;28;19957;-71
2023/12/16 01:18:10;;;;;;;;;;;33.10;50.60;;;;;;4973284;28;19910;-73
2023/12/16 01:20:37;;;;;;;;;;;33.30;52.70;;;;;;4964775;28;19919;-70
2023/12/16 01:23:04;;;;;;;;;;;33.50;49.60;;;;;;4953865;28;19984;-71
2023/12/16 01:25:30;;;;;;;;;;;33.60;49.80;;;;;;4954255;28;19972;-73
2023/12/16 01:27:57;;;;;;;;;;;33.70;50.20;;;;;;4965314;28;19918;-71
2023/12/16 01:30:26;;;;;;;;;;;33.70;51.00;;;;;;4971142;28;19961;-71
2023/12/16 01:32:53;;;;;;;;;;;34.00;50.20;;;;;;4971128;28;19925;-73
2023/12/16 01:35:20;;;;;;;;;;;34.10;49.50;;;;;;4971311;28;19910;-74
2023/12/16 01:37:46;;;;;;;;;;;34.00;49.40;;;;;;4969855;28;19916;-72
2023/12/16 01:40:13;;;;;;;;;;;34.20;49.20;;;;;;4951842;28;19915;-72
2023/12/16 01:42:40;;;;;;;;;;;34.40;49.90;;;;;;4962448;28;19911;-71
2023/12/16 01:45:07;;;;;;;;;;;34.60;49.20;;;;;;4971157;28;19914;-72
2023/12/16 01:47:33;;;;;;;;;;;34.70;48.10;;;;;;4972346;28;19918;-77
2023/12/16 01:50:00;;;;;;;;;;;34.60;47.50;;;;;;4972739;28;19918;-75
2023/12/16 01:52:27;;;;;;;;;;;34.60;47.00;;;;;;4972958;28;19910;-71
2023/12/16 01:54:53;;;;;;;;;;;34.70;46.30;;;;;;4972333;28;19917;-71
2023/12/16 01:57:20;;;;;;;;;;;34.80;47.50;;;;;;4953349;28;20068;-73
2023/12/16 01:59:47;;;;;;;;;;;35.00;47.60;;;;;;4953403;28;19934;-73
2023/12/16 02:02:14;;;;;;;;;;;35.00;46.90;;;;;;4953371;28;19937;-71
2023/12/16 02:04:40;;;;;;;;;;;35.10;46.50;;;;;;4956416;28;19917;-74
2023/12/16 02:07:07;;;;;;;;;;;34.90;47.20;;;;;;4975564;28;20371;-73
2023/12/16 02:09:34;;;;;;;;;;;34.80;47.70;;;;;;4987193;28;19914;-73
2023/12/16 02:12:00;;;;;;;;;;;34.90;49.10;;;;;;4971921;28;19914;-72
2023/12/16 02:14:29;;;;;;;;;;;35.00;48.40;;;;;;4971439;28;19922;-73
2023/12/16 02:16:55;;;;;;;;;;;35.00;47.30;;;;;;4972415;28;19915;-74
2023/12/16 02:19:25;;;;;;;;;;;35.10;47.90;;;;;;4971623;28;19933;-72
2023/12/16 02:21:55;;;;;;;;;;;35.30;47.80;;;;;;4971827;28;19961;-70
2023/12/16 02:24:22;;;;;;;;;;;35.40;47.60;;;;;;4972311;28;19968;-70
2023/12/16 02:26:49;;;;;;;;;;;35.30;47.50;;;;;;4957738;28;19926;-71
2023/12/16 02:29:15;;;;;;;;;;;35.50;47.10;;;;;;4968799;28;19922;-73
2023/12/16 02:31:42;;;;;;;;;;;35.60;47.30;;;;;;4972287;28;19910;-78
2023/12/16 02:34:08;;;;;;;;;;;35.70;46.70;;;;;;4971866;28;19919;-73
2023/12/16 02:36:35;;;;;;;;;;;35.80;45.10;;;;;;4972333;28;19910;-73
2023/12/16 02:39:02;;;;;;;;;;;35.90;45.00;;;;;;4974728;28;19915;-69
2023/12/16 02:41:28;;;;;;;;;;;36.00;45.50;;;;;;4972220;28;19916;-72
2023/12/16 02:43:55;;;;;;;;;;;36.10;45.80;;;;;;4965569;28;19919;-72
2023/12/16 02:46:22;;;;;;;;;;;36.30;45.40;;;;;;4963617;28;19921;-73
2023/12/16 02:48:48;;;;;;;;;;;36.40;45.70;;;;;;4961338;28;19932;-75
2023/12/16 02:51:19;;;;;;;;;;;36.40;44.40;;;;;;4952079;28;19941;-74
2023/12/16 02:53:45;;;;;;;;;;;36.70;46.20;;;;;;4963392;28;19921;-75
2023/12/16 02:56:12;;;;;;;;;;;37.20;44.80;;;;;;4971323;28;19921;-72
2023/12/16 02:58:39;;;;;;;;;;;37.40;44.60;;;;;;4971339;28;19936;-73
2023/12/16 03:01:06;;;;;;;;;;;37.70;45.00;;;;;;4972024;28;19911;-71
2023/12/16 03:03:36;;;;;;;;;;;38.00;43.90;;;;;;4971568;28;19914;-73
2023/12/16 03:06:06;;;;;;;;;;;38.70;44.50;;;;;;5013039;28;20263;-73
2023/12/16 03:08:34;;;;;;;;;;;39.50;43.50;;;;;;5037135;28;19929;-75
2023/12/16 03:11:04;;;;;;;;;;;39.90;43.00;;;;;;4990875;28;19914;-72
2023/12/16 03:13:31;;;;;;;;;;;40.00;42.60;;;;;;4990724;28;19954;-74
2023/12/16 03:15:57;;;;;;;;;;;39.80;41.70;;;;;;4972444;28;19914;-74
2023/12/16 03:18:24;;;;;;;;;;;40.30;42.20;;;;;;4971384;28;20001;-73
2023/12/16 03:20:51;;;;;;;;;;;41.00;41.90;;;;;;4971223;28;19910;-75
2023/12/16 03:23:17;;;;;;;;;;;41.70;40.90;;;;;;4971130;28;19928;-72
2023/12/16 03:25:44;;;;;;;;;;;42.40;41.90;;;;;;4971101;28;19914;-73
2023/12/16 03:28:11;;;;;;;;;;;42.30;40.50;;;;;;4970999;28;20248;-73
2023/12/16 03:30:39;;;;;;;;;;;42.70;41.10;;;;;;4964185;28;19997;-74
2023/12/16 03:33:06;;;;;;;;;;;43.40;40.70;;;;;;4955017;28;19987;-76
2023/12/16 03:35:33;;;;;;;;;;;43.90;40.20;;;;;;4970811;28;19914;-72
2023/12/16 03:38:02;;;;;;;;;;;44.10;40.50;;;;;;4969679;28;19922;-72
2023/12/16 03:40:29;;;;;;;;;;;44.40;39.30;;;;;;4970902;28;19933;-74
2023/12/16 03:42:56;;;;;;;;;;;44.60;40.10;;;;;;4958609;28;19928;-74
2023/12/16 03:45:23;;;;;;;;;;;44.70;39.20;;;;;;4970539;28;19925;-72
2023/12/16 03:47:50;;;;;;;;;;;44.80;39.60;;;;;;4969952;28;20359;-74
2023/12/16 03:50:17;;;;;;;;;;;45.10;38.90;;;;;;4970372;28;19980;-73
2023/12/16 03:52:43;;;;;;;;;;;44.90;40.00;;;;;;4970863;28;19957;-72
2023/12/16 03:55:10;;;;;;;;;;;45.00;39.20;;;;;;4970282;28;19914;-72
2023/12/16 03:57:37;;;;;;;;;;;45.10;39.50;;;;;;4970577;28;20393;-76
2023/12/16 04:00:03;;;;;;;;;;;45.70;44.50;;;;;;4970663;28;19921;-76
2023/12/16 04:02:30;;;;;;;;;;;45.60;48.60;;;;;;4964768;28;20275;-73
2023/12/16 04:04:57;;;;;;;;;;;45.50;49.00;;;;;;4967386;28;19937;-73
2023/12/16 04:07:23;;;;;;;;;;;45.80;48.80;;;;;;4970596;28;19938;-73
2023/12/16 04:09:50;;;;;;;;;;;46.00;47.80;;;;;;4967822;28;19940;-73
2023/12/16 04:12:16;;;;;;;;;;;46.10;48.40;;;;;;4958877;28;19980;-73
2023/12/16 04:14:43;;;;;;;;;;;47.00;47.00;;;;;;4970250;28;19914;-73
2023/12/16 04:17:10;;;;;;;;;;;46.80;46.80;;;;;;4970424;28;19952;-72
2023/12/16 04:19:37;;;;;;;;;;;47.10;46.20;;;;;;4958225;28;20287;-72
2023/12/16 04:22:04;;;;;;;;;;;47.10;45.90;;;;;;4950610;28;19922;-72
2023/12/16 04:24:31;;;;;;;;;;;47.00;47.80;;;;;;4965378;28;19921;-71
2023/12/16 04:26:57;;;;;;;;;;;46.90;48.40;;;;;;4970282;28;19910;-72
2023/12/16 04:29:24;;;;;;;;;;;47.10;48.20;;;;;;4970501;28;19911;-73
2023/12/16 04:31:51;;;;;;;;;;;46.50;48.60;;;;;;4968688;28;19948;-70
2023/12/16 04:34:17;;;;;;;;;;;46.50;49.00;;;;;;4966426;28;19917;-70
2023/12/16 04:36:44;;;;;;;;;;;46.10;50.10;;;;;;4970510;28;20355;-70
2023/12/16 04:39:10;;;;;;;;;;;46.60;49.00;;;;;;4973601;28;19911;-69
2023/12/16 04:41:37;;;;;;;;;;;46.10;48.80;;;;;;4964314;28;19914;-74
2023/12/16 04:44:04;;;;;;;;;;;46.00;48.50;;;;;;4961959;28;19910;-73
2023/12/16 04:46:31;;;;;;;;;;;46.00;49.60;;;;;;4970351;28;20324;-75
2023/12/16 04:48:57;;;;;;;;;;;46.20;50.40;;;;;;4973123;28;19918;-72
2023/12/16 04:51:24;;;;;;;;;;;46.30;49.40;;;;;;4970590;28;20008;-73
2023/12/16 04:53:51;;;;;;;;;;;46.40;48.70;;;;;;4969684;28;20378;-75
2023/12/16 04:56:17;;;;;;;;;;;46.20;48.60;;;;;;4971530;28;20359;-72
2023/12/16 04:58:44;;;;;;;;;;;45.10;48.80;;;;;;4969574;28;19914;-72
2023/12/16 05:01:11;;;;;;;;;;;44.30;49.60;;;;;;4953530;28;19917;-71
2023/12/16 05:03:39;;;;;;;;;;;43.90;49.20;;;;;;4956544;28;20023;-71
2023/12/16 05:06:06;;;;;;;;;;;42.80;48.20;;;;;;4972644;28;20359;-72
2023/12/16 05:08:33;;;;;;;;;;;41.40;48.90;;;;;;4972400;28;19918;-72
2023/12/16 05:11:03;;;;;;;;;;;40.70;50.50;;;;;;4955761;28;19921;-74
2023/12/16 05:13:30;;;;;;;;;;;40.80;49.50;;;;;;4956434;28;20367;-80
2023/12/16 05:15:56;;;;;;;;;;;41.10;49.20;;;;;;4962563;28;20446;-76
2023/12/16 05:18:23;;;;;;;;;;;41.70;50.40;;;;;;4952044;28;19957;-74
2023/12/16 05:20:50;;;;;;;;;;;41.80;49.10;;;;;;4951600;28;19946;-76
2023/12/16 05:23:17;;;;;;;;;;;41.00;48.50;;;;;;4966941;28;19922;-72
2023/12/16 05:25:43;;;;;;;;;;;40.20;50.00;;;;;;4964856;28;20376;-73
2023/12/16 05:28:10;;;;;;;;;;;39.40;51.00;;;;;;4952969;28;19918;-79
2023/12/16 05:30:37;;;;;;;;;;;39.30;52.30;;;;;;4970508;28;19918;-73
2023/12/16 05:33:03;;;;;;;;;;;39.40;51.80;;;;;;4971048;28;19910;-72
2023/12/16 05:35:30;;;;;;;;;;;39.30;53.90;;;;;;4970151;28;19922;-72
2023/12/16 05:37:57;;;;;;;;;;;40.30;51.70;;;;;;4959044;28;19923;-73
2023/12/16 05:40:23;;;;;;;;;;;39.90;50.70;;;;;;4981690;28;20294;-75
2023/12/16 05:42:50;;;;;;;;;;;40.10;50.10;;;;;;4971236;28;19932;-76
2023/12/16 05:45:17;;;;;;;;;;;40.20;50.90;;;;;;4970066;28;20432;-72
2023/12/16 05:47:43;;;;;;;;;;;40.00;50.00;;;;;;4969659;28;19960;-72
2023/12/16 05:50:10;;;;;;;;;;;39.40;51.00;;;;;;4967777;28;19922;-72
2023/12/16 05:52:37;;;;;;;;;;;38.80;52.30;;;;;;4962325;28;19956;-73
2023/12/16 05:55:04;;;;;;;;;;;38.40;52.70;;;;;;4969035;28;19929;-72
2023/12/16 05:57:31;;;;;;;;;;;38.10;52.10;;;;;;4957371;28;19921;-73
2023/12/16 05:59:58;;;;;;;;;;;37.30;51.00;;;;;;4971703;28;19919;-72
2023/12/16 06:02:25;;;;;;;;;;;36.60;53.20;;;;;;4954085;28;19915;-77
2023/12/16 06:04:52;;;;;;;;;;;36.30;53.20;;;;;;4972353;28;19921;-73
2023/12/16 06:07:19;;;;;;;;;;;36.40;54.00;;;;;;4971457;28;19918;-74
2023/12/16 06:09:46;;;;;;;;;;;36.30;55.40;;;;;;4971694;28;20382;-74
2023/12/16 06:12:13;;;;;;;;;;;36.40;52.90;;;;;;4971125;28;20390;-72
2023/12/16 06:14:39;;;;;;;;;;;36.20;53.50;;;;;;4963711;28;20428;-73
2023/12/16 06:17:06;;;;;;;;;;;35.60;54.00;;;;;;4971347;28;19914;-73
2023/12/16 06:19:32;;;;;;;;;;;35.50;53.60;;;;;;4959084;28;19929;-72
2023/12/16 06:21:59;;;;;;;;;;;35.70;53.40;;;;;;4960625;28;20387;-74
2023/12/16 06:24:26;;;;;;;;;;;35.90;54.60;;;;;;4956998;28;20271;-73
2023/12/16 06:26:53;;;;;;;;;;;35.90;54.30;;;;;;4976200;28;20355;-73
2023/12/16 06:29:20;;;;;;;;;;;35.80;55.20;;;;;;5033894;28;19918;-73
2023/12/16 06:31:46;;;;;;;;;;;35.60;55.10;;;;;;4956422;28;19914;-72
2023/12/16 06:34:16;;;;;;;;;;;35.10;55.50;;;;;;4962071;28;19922;-73
2023/12/16 06:36:42;;;;;;;;;;;35.00;56.90;;;;;;4957038;28;20435;-73
2023/12/16 06:39:09;;;;;;;;;;;35.00;58.00;;;;;;4959177;28;19960;-80
2023/12/16 06:41:40;;;;;;;;;;;34.70;58.30;;;;;;4956132;28;20080;-73
2023/12/16 06:44:07;;;;;;;;;;;34.50;59.70;;;;;;4970326;28;19921;-75
2023/12/16 06:46:33;;;;;;;;;;;34.10;60.80;;;;;;4973328;28;19949;-73
2023/12/16 06:49:00;;;;;;;;;;;33.80;62.90;;;;;;4959240;28;20016;-72
2023/12/16 06:51:27;;;;;;;;;;;33.90;62.80;;;;;;4980205;28;19910;-72
2023/12/16 06:53:53;;;;;;;;;;;33.60;61.00;;;;;;4964080;28;19958;-70
2023/12/16 06:56:20;;;;;;;;;;;32.90;60.70;;;;;;4970687;28;19954;-69
2023/12/16 06:58:47;;;;;;;;;;;32.80;60.40;;;;;;4972508;28;20059;-72
2023/12/16 07:01:14;;;;;;;;;;;32.80;61.40;;;;;;4973303;28;19918;-84
2023/12/16 07:03:41;;;;;;;;;;;33.10;59.50;;;;;;4970337;28;19936;-80
2023/12/16 07:06:10;;;;;;;;;;;33.40;59.20;;;;;;4992956;28;19914;-74
2023/12/16 07:08:37;;;;;;;;;;;33.60;59.50;;;;;;4945083;28;19926;-71
2023/12/16 07:11:03;;;;;;;;;;;33.90;58.40;;;;;;4971016;28;19914;-73
2023/12/16 07:13:30;;;;;;;;;;;34.10;57.70;;;;;;4971272;28;19914;-71
2023/12/16 07:15:57;;;;;;;;;;;34.10;56.20;;;;;;4970331;28;19921;-72
2023/12/16 07:18:24;;;;;;;;;;;34.10;58.00;;;;;;4970263;28;19918;-71
2023/12/16 07:20:50;;;;;;;;;;;34.00;57.20;;;;;;4969068;28;19914;-70
2023/12/16 07:23:17;;;;;;;;;;;33.50;58.00;;;;;;4991977;28;19933;-73
2023/12/16 07:25:44;;;;;;;;;;;33.20;58.90;;;;;;4968614;28;20391;-76
2023/12/16 07:28:11;;;;;;;;;;;33.10;59.50;;;;;;4970234;28;19968;-73
2023/12/16 07:30:37;;;;;;;;;;;33.10;58.00;;;;;;4968884;28;19921;-78
2023/12/16 07:33:04;;;;;;;;;;;32.80;60.20;;;;;;4970228;28;19969;-74
2023/12/16 07:35:30;;;;;;;;;;;32.40;61.20;;;;;;4962311;28;19925;-71
2023/12/16 07:37:57;;;;;;;;;;;32.00;67.00;;;;;;4962064;28;20379;-71
2023/12/16 07:40:26;;;;;;;;;;;31.60;71.60;;;;;;4964986;28;19918;-79
2023/12/16 07:42:53;;;;;;;;;;;31.40;73.20;;;;;;4960512;28;19914;-79
2023/12/16 07:45:20;;;;;;;;;;;30.90;73.70;;;;;;4970062;28;20370;-72
2023/12/16 07:47:46;;;;;;;;;;;30.40;71.40;;;;;;4969879;28;19922;-70
2023/12/16 07:50:16;;;;;;;;;;;30.30;72.80;;;;;;4969685;28;19924;-70
2023/12/16 07:52:44;;;;;;;;;;;30.10;73.30;;;;;;4970040;28;19925;-80
2023/12/16 07:55:11;;;;;;;;;;;30.00;76.10;;;;;;4972453;28;19914;-81
2023/12/16 07:57:38;;;;;;;;;;;29.90;77.20;;;;;;4965438;28;19970;-80
2023/12/16 08:00:05;;;;;;;;;;;29.90;78.10;;;;;;4978022;28;19922;-75
2023/12/16 08:02:31;;;;;;;;;;;29.90;77.90;;;;;;4973127;28;19914;-80
2023/12/16 08:05:01;;;;;;;;;;;29.80;78.10;;;;;;4962208;28;19921;-71
2023/12/16 08:07:27;;;;;;;;;;;29.60;78.80;;;;;;4972083;28;19941;-88
2023/12/16 08:09:54;;;;;;;;;;;29.40;79.60;;;;;;4992054;28;20323;-71
2023/12/16 08:12:21;;;;;;;;;;;29.40;79.60;;;;;;4983903;28;19918;-72
2023/12/16 08:14:47;;;;;;;;;;;29.30;80.90;;;;;;4959774;28;19914;-73
2023/12/16 08:17:17;;;;;;;;;;;29.40;82.10;;;;;;4972568;28;19910;-83
2023/12/16 08:19:43;;;;;;;;;;;29.50;81.70;;;;;;4973214;28;20000;-76
2023/12/16 08:22:10;;;;;;;;;;;29.50;80.80;;;;;;4965802;28;20009;-71
2023/12/16 08:24:41;;;;;;;;;;;29.50;74.80;;;;;;4955226;28;19922;-84
2023/12/16 08:27:07;;;;;;;;;;;29.50;73.60;;;;;;4961374;28;19926;-74
2023/12/16 08:29:34;;;;;;;;;;;29.60;71.80;;;;;;4970311;28;19918;-78
2023/12/16 08:32:04;;;;;;;;;;;29.50;70.90;;;;;;4972077;28;19915;-77
2023/12/16 08:34:31;;;;;;;;;;;29.50;78.20;;;;;;4974250;28;20378;-74
2023/12/16 08:36:58;;;;;;;;;;;29.40;84.00;;;;;;4970176;28;20268;-68
2023/12/16 08:39:25;;;;;;;;;;;29.30;87.40;;;;;;4974444;28;19922;-83
2023/12/16 08:41:52;;;;;;;;;;;29.00;90.00;;;;;;4974678;28;20268;-84
2023/12/16 08:44:19;;;;;;;;;;;28.80;91.20;;;;;;4993632;28;19910;-85
2023/12/16 08:46:45;;;;;;;;;;;28.70;92.20;;;;;;4994345;28;19917;-83
2023/12/16 08:49:12;;;;;;;;;;;28.40;93.40;;;;;;4986850;28;19923;-87
2023/12/16 08:51:39;;;;;;;;;;;28.20;94.90;;;;;;4975605;28;19928;-82
2023/12/16 08:54:05;;;;;;;;;;;28.10;96.60;;;;;;4974002;28;20009;-84
2023/12/16 08:56:33;;;;;;;;;;;27.80;98.00;;;;;;4973039;28;19921;-78
2023/12/16 08:59:00;;;;;;;;;;;27.50;99.30;;;;;;4972828;28;19921;-72
2023/12/16 09:01:27;;;;;;;;;;;27.30;99.90;;;;;;4973664;28;20338;-79
2023/12/16 09:03:53;;;;;;;;;;;27.00;99.90;;;;;;4972966;28;20368;-83
2023/12/16 09:06:20;;;;;;;;;;;26.90;99.90;;;;;;4973232;28;19997;-71
2023/12/16 09:08:47;;;;;;;;;;;26.80;99.90;;;;;;4965799;28;19923;-82
2023/12/16 09:11:16;;;;;;;;;;;26.70;99.90;;;;;;4973292;28;19914;-71
2023/12/16 09:13:43;;;;;;;;;;;26.50;99.90;;;;;;4972990;28;19921;-71
2023/12/16 09:16:09;;;;;;;;;;;26.40;99.90;;;;;;4967930;28;21095;-70
2023/12/16 09:18:39;;;;;;;;;;;26.30;99.90;;;;;;4963569;28;20001;-69
2023/12/16 09:21:06;;;;;;;;;;;26.10;99.90;;;;;;4972690;28;19917;-75
2023/12/16 09:23:33;;;;;;;;;;;26.10;99.90;;;;;;4968404;28;20001;-71
2023/12/16 09:26:00;;;;;;;;;;;26.00;99.90;;;;;;4951988;28;20473;-74
2023/12/16 09:28:26;;;;;;;;;;;25.90;99.90;;;;;;4961176;28;19967;-71
2023/12/16 09:30:53;;;;;;;;;;;25.80;99.90;;;;;;4972111;28;20008;-71
2023/12/16 09:33:19;;;;;;;;;;;25.70;99.90;;;;;;4972641;28;19953;-72
2023/12/16 09:35:46;;;;;;;;;;;25.70;99.90;;;;;;4972890;28;20044;-69
2023/12/16 09:38:13;;;;;;;;;;;25.60;99.90;;;;;;4972692;28;19914;-77
2023/12/16 09:40:42;;;;;;;;;;;25.60;99.90;;;;;;4971750;28;20367;-72
2023/12/16 09:43:15;;;;;;;;;;;25.50;99.90;;;;;;4967104;28;19918;-71
2023/12/16 09:45:44;;;;;;;;;;;25.50;99.90;;;;;;4963852;28;20291;-76
2023/12/16 09:48:11;;;;;;;;;;;25.40;99.90;;;;;;4953476;28;20367;-70
2023/12/16 09:50:39;;;;;;;;;;;25.40;99.90;;;;;;4952044;28;19964;-76
2023/12/16 09:53:05;;;;;;;;;;;25.40;99.90;;;;;;4951840;28;20017;-74
2023/12/16 09:55:32;;;;;;;;;;;25.40;99.90;;;;;;4952816;28;20001;-81
2023/12/16 09:58:02;;;;;;;;;;;25.40;99.90;;;;;;4970258;28;19921;-71
2023/12/16 10:00:30;;;;;;;;;;;25.50;99.90;;;;;;4972739;28;19910;-79
2023/12/16 10:02:57;;;;;;;;;;;25.40;99.90;;;;;;4972694;28;19910;-76
2023/12/16 10:05:28;;;;;;;;;;;25.20;99.90;;;;;;4972302;28;19937;-76
2023/12/16 10:08:01;;;;;;;;;;;25.20;99.90;;;;;;4952940;28;19919;-84
2023/12/16 10:10:28;;;;;;;;;;;25.20;99.90;;;;;;4953255;28;19918;-74
2023/12/16 10:12:54;;;;;;;;;;;25.10;99.90;;;;;;4961991;28;19914;-80
2023/12/16 10:15:33;;;;;;;;;;;25.10;99.90;;;;;;4972069;28;19914;-79
2023/12/16 10:18:01;;;;;;;;;;;25.10;99.90;;;;;;4972278;28;19937;-73
2023/12/16 10:20:29;;;;;;;;;;;25.10;99.90;;;;;;4972487;28;20035;-71
2023/12/16 10:22:57;;;;;;;;;;;25.00;99.90;;;;;;4972339;28;19922;-70
2023/12/16 10:25:23;;;;;;;;;;;25.00;99.90;;;;;;4970933;28;19925;-74
2023/12/16 10:27:50;;;;;;;;;;;25.00;99.90;;;;;;4972119;28;20020;-75
2023/12/16 10:30:17;;;;;;;;;;;25.10;99.90;;;;;;4971906;28;20004;-75
2023/12/16 10:32:43;;;;;;;;;;;25.10;99.90;;;;;;4972727;28;20287;-70
2023/12/16 10:35:10;;;;;;;;;;;25.00;99.90;;;;;;4971140;28;19906;-73
2023/12/16 10:37:47;;;;;;;;;;;25.00;99.90;;;;;;4964556;28;19942;-81
2023/12/16 10:40:14;;;;;;;;;;;24.90;99.90;;;;;;4956848;28;20001;-80
2023/12/16 10:42:41;;;;;;;;;;;24.90;99.90;;;;;;4961527;28;19964;-79
2023/12/16 10:45:08;;;;;;;;;;;24.90;99.90;;;;;;4964435;28;19918;-71
2023/12/16 10:47:35;;;;;;;;;;;24.90;99.90;;;;;;4961757;28;19915;-78
2023/12/16 10:50:03;;;;;;;;;;;24.80;99.90;;;;;;4960269;28;19949;-79
2023/12/16 10:52:35;;;;;;;;;;;24.80;99.90;;;;;;4962520;28;19917;-73
2023/12/16 10:55:06;;;;;;;;;;;24.80;99.90;;;;;;4965156;28;19914;-70
2023/12/16 10:57:49;;;;;;;;;;;24.70;99.90;;;;;;4962137;28;20368;-73
2023/12/16 11:00:26;;;;;;;;;;;24.70;99.90;;;;;;4966450;28;20425;-79
2023/12/16 11:02:56;;;;;;;;;;;24.60;99.90;;;;;;4960816;28;19957;-75
2023/12/16 11:05:28;;;;;;;;;;;24.60;99.90;;;;;;4959721;28;19910;-68
2023/12/16 11:07:56;;;;;;;;;;;24.60;99.90;;;;;;4971459;28;19968;-76
2023/12/16 11:10:24;;;;;;;;;;;24.50;99.90;;;;;;4971276;28;19919;-78
2023/12/16 11:12:51;;;;;;;;;;;24.50;99.90;;;;;;4969178;28;19914;-76
2023/12/16 11:15:18;;;;;;;;;;;24.50;99.90;;;;;;4976124;28;19917;-74
2023/12/16 11:17:51;;;;;;;;;;;24.50;99.90;;;;;;4959381;28;19984;-70
2023/12/16 11:20:19;;;;;;;;;;;24.50;99.90;;;;;;4952988;28;19949;-74
2023/12/16 11:22:51;;;;;;;;;;;24.40;99.90;;;;;;4970489;28;19997;-75
2023/12/16 11:25:21;;;;;;;;;;;24.40;99.90;;;;;;4971441;28;19910;-73
2023/12/16 11:27:48;;;;;;;;;;;24.40;99.90;;;;;;4971522;28;19918;-83
2023/12/16 11:30:16;;;;;;;;;;;24.50;99.90;;;;;;4971513;28;19918;-79
2023/12/16 11:32:45;;;;;;;;;;;24.50;99.90;;;;;;4971000;28;19933;-70
2023/12/16 11:35:12;;;;;;;;;;;24.60;99.90;;;;;;4970957;28;19914;-78
2023/12/16 11:37:39;;;;;;;;;;;24.60;99.90;;;;;;4971175;28;20284;-77
2023/12/16 11:40:07;;;;;;;;;;;24.60;99.90;;;;;;4970954;28;19953;-80
2023/12/16 11:42:51;;;;;;;;;;;24.60;99.90;;;;;;4970658;28;19914;-71
2023/12/16 11:45:39;;;;;;;;;;;24.70;99.90;;;;;;4970528;28;19941;-73
2023/12/16 11:48:06;;;;;;;;;;;24.70;99.90;;;;;;4951261;28;19968;-78
2023/12/16 11:50:43;;;;;;;;;;;24.70;99.90;;;;;;4958428;28;19969;-72
2023/12/16 11:53:10;;;;;;;;;;;24.60;99.90;;;;;;4951638;28;19964;-74
2023/12/16 11:55:36;;;;;;;;;;;24.50;99.90;;;;;;4951644;28;19918;-75
2023/12/16 11:58:03;;;;;;;;;;;24.40;99.90;;;;;;4951662;28;20421;-69
2023/12/16 12:00:30;;;;;;;;;;;24.40;99.90;;;;;;4951581;28;20425;-71
2023/12/16 12:03:00;;;;;;;;;;;24.30;99.90;;;;;;4965900;28;20379;-75
2023/12/16 12:05:27;;;;;;;;;;;24.30;99.90;;;;;;4969093;28;19914;-70
2023/12/16 12:07:54;;;;;;;;;;;24.20;99.90;;;;;;4970764;28;19926;-69
2023/12/16 12:10:22;;;;;;;;;;;24.10;99.90;;;;;;4970296;28;19921;-75
2023/12/16 12:12:49;;;;;;;;;;;24.10;99.90;;;;;;4970741;28;20549;-77
2023/12/16 12:15:15;;;;;;;;;;;24.00;99.90;;;;;;5007344;28;19918;-72
2023/12/16 12:17:42;;;;;;;;;;;24.00;99.90;;;;;;4970192;28;20000;-72
2023/12/16 12:20:11;;;;;;;;;;;24.00;99.90;;;;;;4970022;28;19918;-81
2023/12/16 12:22:38;;;;;;;;;;;23.90;99.90;;;;;;4969617;28;19965;-74
2023/12/16 12:25:05;;;;;;;;;;;23.90;99.90;;;;;;4970534;28;19921;-70
2023/12/16 12:27:31;;;;;;;;;;;24.00;99.90;;;;;;4970684;28;20378;-69
2023/12/16 12:30:04;;;;;;;;;;;23.90;99.90;;;;;;4970114;28;20363;-69
2023/12/16 12:32:32;;;;;;;;;;;23.90;99.90;;;;;;4970166;28;19911;-74
2023/12/16 12:35:06;;;;;;;;;;;23.90;99.90;;;;;;4970096;28;19910;-70
2023/12/16 12:37:36;;;;;;;;;;;23.80;99.90;;;;;;4969784;28;19925;-76
2023/12/16 12:40:05;;;;;;;;;;;23.80;99.90;;;;;;4969313;28;19969;-70
2023/12/16 12:43:03;;;;;;;;;;;23.90;99.90;;;;;;4969482;28;20055;-76
2023/12/16 12:45:30;;;;;;;;;;;23.80;99.90;;;;;;4949542;28;20377;-75
2023/12/16 12:48:17;;;;;;;;;;;23.80;99.90;;;;;;4950824;28;19922;-71
2023/12/16 12:50:46;;;;;;;;;;;23.90;99.90;;;;;;4950728;28;19955;-75
2023/12/16 12:53:16;;;;;;;;;;;23.80;99.90;;;;;;4953892;28;19933;-75
2023/12/16 12:55:43;;;;;;;;;;;23.80;99.90;;;;;;4969640;28;19914;-72
2023/12/16 12:58:10;;;;;;;;;;;23.90;99.90;;;;;;4970824;28;20001;-76
2023/12/16 13:00:38;;;;;;;;;;;23.80;99.90;;;;;;4971981;28;19921;-75
2023/12/16 13:03:06;;;;;;;;;;;23.80;99.90;;;;;;4973614;28;19916;-78
2023/12/16 13:05:32;;;;;;;;;;;23.80;99.90;;;;;;4973327;28;19964;-76
2023/12/16 13:07:59;;;;;;;;;;;23.70;99.90;;;;;;4973502;28;19964;-72
2023/12/16 13:10:26;;;;;;;;;;;23.60;99.90;;;;;;4972826;28;20408;-75
2023/12/16 13:12:54;;;;;;;;;;;23.60;99.90;;;;;;4972964;28;19910;-78
2023/12/16 13:15:24;;;;;;;;;;;23.50;99.90;;;;;;4965418;28;19910;-75
2023/12/16 13:17:51;;;;;;;;;;;23.60;99.90;;;;;;4957427;28;20374;-74
2023/12/16 13:20:18;;;;;;;;;;;23.60;99.90;;;;;;4968903;28;19921;-72
2023/12/16 13:22:45;;;;;;;;;;;23.60;99.90;;;;;;4953644;28;19950;-75
2023/12/16 13:25:12;;;;;;;;;;;23.60;99.90;;;;;;4953732;28;19911;-74
2023/12/16 13:27:40;;;;;;;;;;;23.60;99.90;;;;;;4970741;28;19972;-72
2023/12/16 13:30:07;;;;;;;;;;;23.60;99.90;;;;;;4973168;28;19972;-74
2023/12/16 13:32:34;;;;;;;;;;;23.70;99.90;;;;;;4973120;28;20363;-78
2023/12/16 13:35:01;;;;;;;;;;;23.80;99.90;;;;;;4972611;28;19918;-73
2023/12/16 13:37:28;;;;;;;;;;;23.70;99.90;;;;;;4956229;28;19915;-75
2023/12/16 13:39:54;;;;;;;;;;;23.70;99.90;;;;;;4953526;28;20346;-71
2023/12/16 13:42:21;;;;;;;;;;;23.60;99.90;;;;;;4959972;28;19914;-71
2023/12/16 13:44:48;;;;;;;;;;;23.40;99.90;;;;;;4972739;28;19910;-75
2023/12/16 13:47:14;;;;;;;;;;;23.40;99.90;;;;;;4972612;28;19910;-74
2023/12/16 13:49:41;;;;;;;;;;;23.40;99.90;;;;;;4972668;28;19914;-71
2023/12/16 13:52:08;;;;;;;;;;;23.30;99.90;;;;;;4973139;28;19911;-72
2023/12/16 13:54:34;;;;;;;;;;;23.30;99.90;;;;;;4972923;28;20281;-69
2023/12/16 13:57:02;;;;;;;;;;;23.30;99.90;;;;;;4972753;28;20457;-76
2023/12/16 13:59:32;;;;;;;;;;;23.30;99.90;;;;;;4957754;28;19919;-76
2023/12/16 14:01:59;;;;;;;;;;;23.30;99.90;;;;;;4953368;28;19910;-76
2023/12/16 14:04:25;;;;;;;;;;;23.30;99.90;;;;;;4965930;28;19914;-73
2023/12/16 14:06:52;;;;;;;;;;;23.20;99.90;;;;;;4971375;28;19910;-76
2023/12/16 14:09:19;;;;;;;;;;;23.20;99.90;;;;;;4971256;28;19922;-75
2023/12/16 14:11:46;;;;;;;;;;;23.20;99.90;;;;;;4955805;28;19915;-73
2023/12/16 14:14:12;;;;;;;;;;;23.20;99.90;;;;;;4956170;28;19968;-71
2023/12/16 14:16:39;;;;;;;;;;;23.20;99.90;;;;;;4971862;28;19953;-73
2023/12/16 14:19:06;;;;;;;;;;;23.20;99.90;;;;;;4972149;28;19916;-77